createdAt,value
2022-12-08T00:00:10.010Z,5.15
2022-12-08T00:05:11.506Z,5.14
2022-12-08T00:10:40.267Z,5.24
2022-12-08T00:15:34.325Z,5.29
2022-12-08T00:20:35.762Z,5.25
2022-12-08T00:25:37.237Z,5.22
2022-12-08T00:30:43.039Z,5.27
2022-12-08T00:35:44.475Z,5.41
2022-12-08T00:40:47.400Z,5.36
2022-12-08T00:45:48.895Z,5.29
2022-12-08T00:50:50.420Z,5.45
2022-12-08T00:55:51.874Z,5.27
2022-12-08T01:00:53.401Z,5.22
2022-12-08T01:05:54.811Z,5.38
2022-12-08T01:10:56.276Z,5.39
2022-12-08T01:15:57.792Z,5.43
2022-12-08T01:21:04.839Z,5.22
2022-12-08T01:26:08.688Z,5.22
2022-12-08T01:31:20.050Z,5.23
2022-12-08T01:36:25.096Z,5.09
2022-12-08T01:41:29.442Z,4.91
2022-12-08T01:46:33.258Z,4.93
2022-12-08T01:51:42.229Z,4.66
2022-12-08T01:56:55.260Z,4.65
2022-12-08T02:01:57.950Z,4.74
2022-12-08T02:07:03.601Z,4.66
2022-12-08T02:12:09.383Z,4.62
2022-12-08T02:17:13.698Z,4.68
2022-12-08T02:22:24.229Z,4.69
2022-12-08T02:28:01.450Z,4.72
2022-12-08T02:33:41.842Z,4.49
2022-12-08T02:39:24.914Z,4.70
2022-12-08T02:44:33.696Z,4.59
2022-12-08T02:49:36.375Z,4.62
2022-12-08T02:54:41.558Z,4.26
2022-12-08T03:00:07.110Z,4.44
2022-12-08T03:05:38.771Z,4.40
2022-12-08T03:10:51.330Z,4.44
2022-12-08T03:15:54.839Z,4.44
2022-12-08T03:20:56.319Z,4.46
2022-12-08T03:26:08.452Z,4.44
2022-12-08T03:31:12.947Z,4.42
2022-12-08T03:36:15.247Z,4.30
2022-12-08T03:41:16.687Z,4.40
2022-12-08T03:51:22.224Z,4.38
2022-12-08T03:56:32.989Z,4.25
2022-12-08T04:01:34.618Z,4.10
2022-12-08T04:06:36.144Z,4.33
2022-12-08T04:11:37.667Z,4.21
2022-12-08T04:16:42.184Z,4.24
2022-12-08T04:21:43.920Z,4.45
2022-12-08T04:26:45.435Z,4.58
2022-12-08T04:31:47.052Z,4.65
2022-12-08T04:36:48.529Z,4.72
2022-12-08T04:41:49.916Z,4.81
2022-12-08T04:46:51.439Z,4.67
2022-12-08T04:51:53.001Z,4.80
2022-12-08T04:56:54.616Z,4.96
2022-12-08T05:01:56.211Z,5.02
2022-12-08T05:06:57.925Z,5.04
2022-12-08T05:11:59.349Z,4.88
2022-12-08T05:17:04.839Z,4.96
2022-12-08T05:22:09.439Z,5.02
2022-12-08T05:27:10.996Z,4.72
2022-12-08T05:32:12.455Z,4.80
2022-12-08T05:37:14.054Z,4.69
2022-12-08T05:42:17.436Z,4.92
2022-12-08T05:47:21.982Z,4.87
2022-12-08T05:52:23.536Z,4.82
2022-12-08T05:57:25.202Z,4.67
2022-12-08T06:02:27.003Z,4.72
2022-12-08T06:07:28.636Z,4.86
2022-12-08T06:12:30.316Z,5.19
2022-12-08T06:17:31.766Z,5.13
2022-12-08T06:22:33.278Z,5.23
2022-12-08T06:27:34.831Z,5.32
2022-12-08T06:32:36.775Z,5.23
2022-12-08T06:37:38.409Z,5.26
2022-12-08T06:42:39.848Z,5.34
2022-12-08T06:47:41.523Z,5.43
2022-12-08T06:52:54.326Z,5.36
2022-12-08T06:58:02.353Z,5.31
2022-12-08T07:03:03.928Z,5.34
2022-12-08T07:08:09.718Z,5.30
2022-12-08T07:13:11.247Z,5.29
2022-12-08T07:18:12.801Z,5.24
2022-12-08T07:23:14.705Z,5.29
2022-12-08T07:28:16.264Z,5.38
2022-12-08T07:33:17.732Z,5.42
2022-12-08T07:38:19.200Z,5.33
2022-12-08T07:43:22.244Z,5.27
2022-12-08T07:48:23.662Z,5.36
2022-12-08T07:53:25.107Z,5.33
2022-12-08T07:58:27.665Z,5.30
2022-12-08T08:03:29.197Z,5.33
2022-12-08T08:08:31.778Z,5.40
2022-12-08T08:13:33.365Z,5.27
2022-12-08T08:18:36.116Z,5.33
2022-12-08T08:23:37.589Z,5.25
2022-12-08T08:28:39.213Z,5.27
2022-12-08T08:33:40.762Z,5.32
2022-12-08T08:38:42.232Z,5.38
2022-12-08T08:43:43.739Z,5.42
2022-12-08T08:48:45.348Z,5.62
2022-12-08T08:53:46.858Z,5.48
2022-12-08T08:58:52.971Z,5.55
2022-12-08T09:03:55.410Z,5.52
2022-12-08T09:08:57.084Z,5.54
2022-12-08T09:13:58.545Z,5.57
2022-12-08T09:19:00.100Z,5.58
2022-12-08T09:24:01.554Z,5.58
2022-12-08T09:29:03.076Z,5.65
2022-12-08T09:34:04.877Z,5.69
2022-12-08T09:39:07.252Z,5.59
2022-12-08T09:44:39.448Z,5.64
2022-12-08T09:49:45.620Z,5.78
2022-12-08T09:54:47.246Z,5.71
2022-12-08T09:59:55.495Z,5.70
2022-12-08T10:04:58.885Z,5.73
2022-12-08T10:10:22.800Z,5.78
2022-12-08T10:15:30.405Z,5.85
2022-12-08T10:20:41.591Z,5.98
2022-12-08T10:25:54.309Z,6.10
2022-12-08T10:30:55.945Z,6.25
2022-12-08T10:35:59.412Z,6.26
2022-12-08T10:41:06.549Z,6.32
2022-12-08T10:46:21.493Z,6.45
2022-12-08T10:51:36.489Z,6.34
2022-12-08T10:56:52.866Z,6.40
2022-12-08T11:01:56.562Z,6.45
2022-12-08T11:06:58.169Z,6.48
2022-12-08T11:12:07.160Z,6.54
2022-12-08T11:17:16.433Z,6.45
2022-12-08T11:22:57.403Z,6.54
2022-12-08T11:28:01.233Z,6.48
2022-12-08T11:33:38.116Z,6.55
2022-12-08T11:38:44.114Z,6.63
2022-12-08T11:43:58.596Z,6.36
2022-12-08T11:49:06.761Z,6.72
2022-12-08T11:54:25.211Z,7.05
2022-12-08T11:59:32.147Z,6.94
2022-12-08T12:04:56.584Z,6.74
2022-12-08T12:10:10.625Z,6.71
2022-12-08T12:15:33.069Z,6.64
2022-12-08T12:20:50.928Z,6.56
2022-12-08T12:25:59.700Z,6.73
2022-12-08T12:31:06.379Z,6.74
2022-12-08T12:36:10.600Z,6.69
2022-12-08T12:41:14.594Z,6.64
2022-12-08T12:46:25.388Z,6.65
2022-12-08T12:51:39.185Z,6.62
2022-12-08T12:56:54.905Z,6.63
2022-12-08T13:01:56.968Z,6.77
2022-12-08T13:06:59.205Z,6.61
2022-12-08T13:12:12.356Z,6.77
2022-12-08T13:17:27.406Z,6.75
2022-12-08T13:22:53.893Z,6.70
2022-12-08T13:27:55.377Z,6.64
2022-12-08T13:33:18.254Z,6.69
2022-12-08T13:38:26.282Z,6.74
2022-12-08T13:44:31.192Z,6.71
2022-12-08T14:00:15.030Z,6.62
2022-12-08T14:05:34.865Z,6.66
2022-12-08T14:10:40.985Z,6.58
2022-12-08T14:15:42.597Z,6.57
2022-12-08T14:21:19.016Z,6.58
2022-12-08T14:26:06.328Z,6.46
2022-12-08T14:31:08.443Z,6.56
2022-12-08T14:36:11.112Z,6.32
2022-12-08T14:41:12.576Z,6.17
2022-12-08T14:46:22.566Z,6.19
2022-12-08T14:51:30.365Z,6.19
2022-12-08T14:56:33.755Z,6.17
2022-12-08T15:01:37.046Z,6.06
2022-12-08T15:07:06.501Z,6.04
2022-12-08T15:12:14.052Z,5.95
2022-12-08T15:17:49.419Z,5.87
2022-12-08T15:22:51.772Z,5.87
2022-12-08T15:27:53.352Z,5.93
2022-12-08T15:32:54.830Z,5.83
2022-12-08T15:37:56.714Z,5.74
2022-12-08T15:42:58.211Z,5.67
2022-12-08T15:47:59.715Z,5.68
2022-12-08T15:53:01.283Z,5.68
2022-12-08T15:58:52.452Z,5.71
2022-12-08T16:09:00.698Z,5.63
2022-12-08T16:14:47.413Z,5.64
2022-12-08T16:19:33.800Z,5.58
2022-12-08T16:24:35.294Z,5.62
2022-12-08T16:29:36.679Z,5.51
2022-12-08T16:34:38.242Z,5.63
2022-12-08T16:39:45.421Z,5.44
2022-12-08T16:44:47.288Z,5.40
2022-12-08T16:49:48.720Z,5.37
2022-12-08T16:54:50.136Z,5.31
2022-12-08T16:59:51.686Z,5.30
2022-12-08T17:04:53.198Z,5.31
2022-12-08T17:09:54.867Z,5.34
2022-12-08T17:14:56.299Z,5.27
2022-12-08T17:19:57.832Z,5.27
2022-12-08T17:25:00.188Z,5.23
2022-12-08T17:30:01.681Z,5.37
2022-12-08T17:35:03.886Z,5.34
2022-12-08T17:40:06.556Z,5.31
2022-12-08T17:45:09.043Z,5.32
2022-12-08T17:50:10.681Z,5.27
2022-12-08T17:55:12.164Z,5.23
2022-12-08T18:00:14.120Z,5.21
2022-12-08T18:05:15.644Z,5.20
2022-12-08T18:10:18.092Z,5.33
2022-12-08T18:15:20.378Z,5.20
2022-12-08T18:20:22.036Z,5.30
2022-12-08T18:25:23.497Z,5.21
2022-12-08T18:30:24.992Z,5.18
2022-12-08T18:35:26.475Z,5.06
2022-12-08T18:40:28.500Z,5.04
2022-12-08T18:45:29.972Z,5.04
2022-12-08T18:50:31.405Z,5.05
2022-12-08T18:55:32.908Z,5.05
2022-12-08T19:00:34.352Z,5.08
2022-12-08T19:05:35.853Z,5.06
2022-12-08T19:10:38.222Z,5.07
2022-12-08T19:15:39.724Z,5.00
2022-12-08T19:20:41.296Z,4.98
2022-12-08T19:25:42.747Z,5.03
2022-12-08T19:30:44.360Z,4.86
2022-12-08T19:35:52.068Z,4.87
2022-12-08T19:40:54.073Z,4.85
2022-12-08T19:45:55.723Z,4.78
2022-12-08T19:50:57.548Z,4.94
2022-12-08T19:55:59.070Z,4.90
2022-12-08T20:01:00.527Z,4.70
2022-12-08T20:06:02.029Z,4.78
2022-12-08T20:11:03.520Z,4.97
2022-12-08T20:16:05.440Z,4.99
2022-12-08T20:21:07.755Z,5.02
2022-12-08T20:26:13.152Z,4.92
2022-12-08T20:31:23.450Z,4.75
2022-12-08T20:36:25.050Z,4.85
2022-12-08T20:41:26.457Z,4.83
2022-12-08T20:46:27.980Z,4.73
2022-12-08T20:51:32.186Z,4.79
2022-12-08T20:56:33.865Z,4.92
2022-12-08T21:01:35.500Z,4.72
2022-12-08T21:06:36.992Z,4.82
2022-12-08T21:11:38.536Z,4.60
2022-12-08T21:16:40.251Z,4.62
2022-12-08T21:21:41.913Z,4.66
2022-12-08T21:26:43.646Z,4.50
2022-12-08T21:31:45.432Z,4.50
2022-12-08T21:36:47.011Z,4.54
2022-12-08T21:41:48.643Z,4.50
2022-12-08T21:46:50.343Z,4.74
2022-12-08T21:51:51.916Z,4.87
2022-12-08T21:56:53.515Z,4.80
2022-12-08T22:01:55.244Z,4.87
2022-12-08T22:06:57.124Z,4.72
2022-12-08T22:11:58.724Z,4.60
2022-12-08T22:17:00.325Z,4.48
2022-12-08T22:22:02.385Z,4.40
2022-12-08T22:27:03.968Z,4.45
2022-12-08T22:32:05.871Z,4.50
2022-12-08T22:37:07.356Z,4.40
2022-12-08T22:42:08.995Z,4.34
2022-12-08T22:47:10.511Z,4.36
2022-12-08T22:52:12.067Z,4.35
2022-12-08T22:57:13.585Z,4.35
2022-12-08T23:02:15.163Z,4.43
2022-12-08T23:07:16.748Z,4.34
2022-12-08T23:12:18.303Z,4.45
2022-12-08T23:17:19.751Z,4.45
2022-12-08T23:22:21.592Z,4.37
2022-12-08T23:27:23.349Z,4.47
2022-12-08T23:32:24.930Z,4.22
2022-12-08T23:37:28.502Z,4.37
2022-12-08T23:42:30.134Z,4.62
2022-12-08T23:47:31.664Z,4.42
2022-12-08T23:52:33.248Z,4.25
2022-12-08T23:57:35.817Z,4.44
